Time;durP1;ratioP1;P1;durP2;ratioP2;P2;SDS_P1;SDS_P2;PMS_P1;PMS_P2;Temp;Humidity;BMP_temperature;BMP_pressure;BME280_temperature;BME280_humidity;BME280_pressure;Samples;Min_cycle;Max_cycle;Signal;HPM_P1;HPM_P2
2021/07/29 07:19:28;;;;;;;14.73;7.90;;;;;;;22.98;74.49;97568.78;1871622;76;23304;-64
2021/07/29 07:21:56;;;;;;;10.45;6.95;;;;;;;23.00;74.29;97574.64;1827869;77;21391;-62
2021/07/29 07:24:23;;;;;;;16.60;7.22;;;;;;;23.10;74.00;97576.63;1827945;78;21114;-65
2021/07/29 07:26:50;;;;;;;11.68;6.12;;;;;;;23.20;73.81;97574.37;1827877;78;21509;-69
2021/07/29 07:29:17;;;;;;;11.12;6.75;;;;;;;23.37;74.11;97572.31;1827792;78;20832;-63
2021/07/29 07:31:44;;;;;;;9.20;6.55;;;;;;;23.59;73.44;97583.55;1827808;78;20884;-65
2021/07/29 07:34:11;;;;;;;14.10;6.45;;;;;;;23.74;72.52;97592.02;1827868;78;20928;-64
2021/07/29 07:36:38;;;;;;;20.45;7.50;;;;;;;23.81;72.39;97597.50;1828137;78;21709;-63
2021/07/29 07:39:04;;;;;;;11.40;7.15;;;;;;;23.86;71.56;97599.08;1827762;78;20864;-62
2021/07/29 07:41:31;;;;;;;15.83;6.72;;;;;;;23.86;71.50;97595.73;1828204;78;20912;-62
2021/07/29 07:43:58;;;;;;;12.80;7.00;;;;;;;23.93;71.27;97593.63;1827798;78;20915;-66
2021/07/29 07:46:26;;;;;;;14.35;6.50;;;;;;;24.05;71.26;97599.50;1827844;78;20915;-67
2021/07/29 07:48:52;;;;;;;12.85;7.40;;;;;;;24.18;70.65;97602.13;1827835;78;21104;-64
2021/07/29 07:51:19;;;;;;;9.50;6.50;;;;;;;24.29;70.29;97594.70;1827927;78;20946;-65
2021/07/29 07:53:46;;;;;;;12.00;6.85;;;;;;;24.41;70.01;97599.80;1827825;78;20864;-62
2021/07/29 07:56:13;;;;;;;14.75;7.35;;;;;;;24.51;70.05;97591.98;1827699;78;21003;-68
2021/07/29 07:58:41;;;;;;;12.18;7.25;;;;;;;24.54;69.31;97592.58;1827707;78;20896;-62
2021/07/29 08:01:07;;;;;;;14.13;6.95;;;;;;;24.51;69.12;97591.98;1827803;78;21163;-65
2021/07/29 08:03:34;;;;;;;10.25;6.35;;;;;;;24.44;69.27;97596.88;1827924;78;21390;-66
2021/07/29 08:06:02;;;;;;;11.80;6.60;;;;;;;24.45;69.38;97601.95;1827886;78;21391;-67
2021/07/29 08:08:29;;;;;;;16.02;6.97;;;;;;;24.59;69.28;97611.36;1827879;78;20880;-63
2021/07/29 08:10:56;;;;;;;10.60;6.40;;;;;;;24.79;68.77;97617.44;1827822;78;20861;-66
2021/07/29 08:13:22;;;;;;;10.45;6.15;;;;;;;24.94;68.14;97616.85;1827795;78;21800;-65
2021/07/29 08:15:49;;;;;;;8.63;5.40;;;;;;;25.07;67.11;97616.63;1791291;80;20987;-64
2021/07/29 08:18:18;;;;;;;9.60;5.50;;;;;;;25.22;67.13;97620.92;1785686;80;21355;-68
2021/07/29 08:20:46;;;;;;;13.93;5.90;;;;;;;25.40;65.74;97614.80;1777659;80;20883;-67
2021/07/29 08:23:12;;;;;;;10.60;5.22;;;;;;;25.47;65.95;97602.47;1778074;80;21466;-69
2021/07/29 08:25:39;;;;;;;13.25;5.80;;;;;;;25.47;64.97;97586.02;1777802;80;21124;-68
2021/07/29 08:28:06;;;;;;;10.88;5.80;;;;;;;25.41;64.96;97599.92;1777707;80;20891;-68
2021/07/29 08:30:32;;;;;;;9.13;5.78;;;;;;;25.30;64.87;97615.59;1777290;80;20911;-68
2021/07/29 08:33:11;;;;;;;16.20;5.50;;;;;;;25.18;65.37;97617.99;1777406;80;20994;-63
2021/07/29 08:35:38;;;;;;;14.40;6.15;;;;;;;25.04;65.75;97618.77;1777278;80;20907;-68
2021/07/29 08:38:06;;;;;;;9.10;5.65;;;;;;;24.94;65.67;97623.70;1777197;80;21375;-65
2021/07/29 08:40:34;;;;;;;11.68;6.17;;;;;;;24.88;66.03;97625.25;1777270;80;20903;-66
2021/07/29 08:43:02;;;;;;;10.13;5.60;;;;;;;24.90;66.35;97614.68;1777163;80;20962;-65
2021/07/29 08:45:29;;;;;;;13.10;6.00;;;;;;;25.02;66.46;97607.43;1732036;80;20891;-63
2021/07/29 08:47:56;;;;;;;12.25;5.78;;;;;;;25.23;66.30;97612.88;1777255;80;20982;-62
2021/07/29 08:50:23;;;;;;;8.68;6.17;;;;;;;25.45;65.38;97614.42;1777143;80;21187;-69
2021/07/29 08:52:50;;;;;;;11.10;6.40;;;;;;;25.56;64.27;97613.79;1777452;80;21010;-63
2021/07/29 08:55:18;;;;;;;7.03;5.60;;;;;;;25.51;64.39;97616.94;1777521;80;20853;-68
